createdAt,value
2023-04-30T00:00:47.710Z,9.20
2023-04-30T00:03:14.601Z,9.50
2023-04-30T00:05:41.455Z,9.50
2023-04-30T00:08:08.256Z,9.50
2023-04-30T00:10:35.201Z,9.50
2023-04-30T00:13:02.049Z,9.60
2023-04-30T00:15:28.872Z,9.50
2023-04-30T00:17:55.715Z,9.60
2023-04-30T00:20:22.516Z,9.60
2023-04-30T00:22:49.318Z,9.70
2023-04-30T00:25:16.724Z,9.70
2023-04-30T00:27:43.542Z,9.80
2023-04-30T00:30:11.195Z,9.80
2023-04-30T00:32:38.069Z,9.90
2023-04-30T00:35:05.459Z,9.90
2023-04-30T00:37:32.606Z,9.90
2023-04-30T00:39:59.458Z,9.90
2023-04-30T00:42:26.267Z,9.80
2023-04-30T00:44:53.119Z,9.90
2023-04-30T00:47:20.043Z,9.80
2023-04-30T00:49:47.158Z,9.80
2023-04-30T00:52:14.543Z,9.90
2023-04-30T00:54:41.631Z,9.90
2023-04-30T00:57:13.848Z,9.90
2023-04-30T00:59:41.838Z,9.80
2023-04-30T01:02:09.057Z,9.90
2023-04-30T01:04:36.550Z,9.80
2023-04-30T01:07:03.460Z,9.80
2023-04-30T01:09:31.062Z,9.80
2023-04-30T01:12:20.460Z,9.80
2023-04-30T01:15:08.718Z,9.80
2023-04-30T01:17:47.902Z,9.90
2023-04-30T01:20:15.607Z,9.80
2023-04-30T01:23:24.962Z,9.80
2023-04-30T01:26:31.543Z,9.80
2023-04-30T01:29:00.494Z,9.80
2023-04-30T01:31:29.142Z,9.80
2023-04-30T01:33:55.986Z,9.80
2023-04-30T01:36:54.594Z,9.80
2023-04-30T01:40:03.883Z,9.80
2023-04-30T01:42:45.888Z,9.70
2023-04-30T01:46:00.664Z,9.80
2023-04-30T01:48:53.276Z,9.80
2023-04-30T01:51:36.185Z,9.70
2023-04-30T01:54:27.741Z,9.70
2023-04-30T01:57:08.296Z,9.70
2023-04-30T01:59:38.643Z,9.60
2023-04-30T02:02:06.862Z,9.60
2023-04-30T02:04:33.778Z,9.60
2023-04-30T02:07:01.804Z,9.60
2023-04-30T02:09:28.633Z,9.60
2023-04-30T02:11:57.727Z,9.50
2023-04-30T02:14:25.325Z,9.50
2023-04-30T02:16:52.126Z,9.50
2023-04-30T02:19:18.977Z,9.40
2023-04-30T02:21:45.803Z,9.50
2023-04-30T02:24:12.675Z,9.50
2023-04-30T02:26:39.457Z,9.40
2023-04-30T02:29:06.258Z,9.40
2023-04-30T02:31:33.121Z,9.40
2023-04-30T02:33:59.972Z,9.30
2023-04-30T02:36:27.174Z,9.30
2023-04-30T02:38:54.015Z,9.30
2023-04-30T02:41:21.739Z,9.30
2023-04-30T02:43:48.687Z,9.30
2023-04-30T02:46:15.662Z,9.30
2023-04-30T02:48:42.559Z,9.30
2023-04-30T02:51:09.730Z,9.40
2023-04-30T02:53:36.553Z,9.30
2023-04-30T02:56:03.493Z,9.40
2023-04-30T02:58:30.352Z,9.40
2023-04-30T03:00:57.437Z,9.40
2023-04-30T03:03:24.364Z,9.50
2023-04-30T03:05:51.227Z,9.50
2023-04-30T03:08:18.038Z,9.60
2023-04-30T03:10:44.875Z,9.60
2023-04-30T03:13:11.694Z,9.60
2023-04-30T03:15:38.576Z,9.70
2023-04-30T03:18:05.808Z,9.70
2023-04-30T03:20:32.709Z,9.70
2023-04-30T03:22:59.547Z,9.80
2023-04-30T03:25:26.313Z,9.80
2023-04-30T03:27:53.168Z,9.70
2023-04-30T03:30:20.159Z,9.70
2023-04-30T03:32:46.981Z,9.70
2023-04-30T03:35:13.946Z,9.70
2023-04-30T03:37:41.478Z,9.60
2023-04-30T03:40:08.899Z,9.60
2023-04-30T03:42:35.846Z,9.60
2023-04-30T03:45:02.669Z,9.40
2023-04-30T03:47:29.507Z,9.30
2023-04-30T03:49:56.705Z,9.30
2023-04-30T03:52:23.813Z,9.20
2023-04-30T03:54:50.683Z,9.20
2023-04-30T03:57:17.679Z,9.20
2023-04-30T03:59:44.563Z,9.20
2023-04-30T04:02:11.420Z,9.20
2023-04-30T04:04:38.220Z,9.10
2023-04-30T04:07:07.788Z,9.00
2023-04-30T04:09:34.669Z,9.00
2023-04-30T04:12:01.608Z,9.00
2023-04-30T04:14:28.576Z,8.80
2023-04-30T04:16:57.776Z,8.70
2023-04-30T04:19:24.646Z,8.70
2023-04-30T04:21:51.589Z,8.60
2023-04-30T04:24:18.465Z,8.60
2023-04-30T04:26:46.700Z,8.60
2023-04-30T04:29:14.783Z,8.60
2023-04-30T04:31:42.799Z,8.60
2023-04-30T04:34:09.858Z,8.70
2023-04-30T04:36:36.918Z,8.70
2023-04-30T04:39:03.939Z,8.60
2023-04-30T04:41:37.948Z,8.60
2023-04-30T04:44:05.250Z,8.60
2023-04-30T04:46:32.571Z,8.80
2023-04-30T04:48:59.537Z,8.80
2023-04-30T04:51:26.889Z,8.90
2023-04-30T04:53:53.763Z,9.00
2023-04-30T04:56:20.866Z,9.00
2023-04-30T04:58:47.878Z,9.10
2023-04-30T05:01:14.786Z,9.20
2023-04-30T05:03:41.783Z,9.30
2023-04-30T05:06:09.015Z,9.40
2023-04-30T05:08:36.293Z,9.50
2023-04-30T05:11:03.095Z,9.70
2023-04-30T05:13:30.126Z,9.80
2023-04-30T05:15:57.010Z,10.00
2023-04-30T05:18:23.846Z,10.20
2023-04-30T05:20:50.684Z,10.30
2023-04-30T05:23:17.532Z,10.30
2023-04-30T05:25:44.362Z,10.50
2023-04-30T05:28:11.766Z,10.60
2023-04-30T05:30:38.698Z,10.60
2023-04-30T05:33:05.558Z,10.70
2023-04-30T05:35:35.850Z,10.90
2023-04-30T05:38:03.651Z,10.90
2023-04-30T05:40:30.827Z,11.00
2023-04-30T05:42:57.690Z,11.10
2023-04-30T05:45:24.954Z,11.20
2023-04-30T05:47:51.895Z,11.10
2023-04-30T05:50:18.814Z,11.20
2023-04-30T05:52:45.743Z,11.30
2023-04-30T05:55:12.805Z,11.50
2023-04-30T05:57:39.723Z,11.60
2023-04-30T06:00:07.638Z,11.70
2023-04-30T06:02:34.579Z,11.70
2023-04-30T06:05:03.169Z,11.80
2023-04-30T06:07:30.613Z,11.70
2023-04-30T06:09:57.625Z,12.00
2023-04-30T06:12:24.621Z,12.10
2023-04-30T06:14:52.300Z,12.20
2023-04-30T06:17:19.354Z,12.20
2023-04-30T06:19:46.308Z,12.50
2023-04-30T06:22:13.366Z,12.70
2023-04-30T06:24:40.221Z,12.80
2023-04-30T06:27:07.004Z,12.80
2023-04-30T06:29:33.815Z,13.00
2023-04-30T06:32:00.827Z,13.20
2023-04-30T06:34:27.686Z,13.30
2023-04-30T06:36:54.541Z,13.40
2023-04-30T06:39:21.454Z,13.60
2023-04-30T06:41:48.345Z,13.60
2023-04-30T06:44:15.213Z,13.80
2023-04-30T06:46:42.180Z,13.80
2023-04-30T06:49:09.282Z,13.90
2023-04-30T06:51:36.310Z,14.00
2023-04-30T06:54:03.103Z,14.00
2023-04-30T06:56:29.936Z,14.10
2023-04-30T06:58:56.800Z,14.30
2023-04-30T07:01:23.611Z,14.10
2023-04-30T07:03:51.554Z,14.00
2023-04-30T07:06:18.517Z,14.20
2023-04-30T07:08:45.389Z,14.10
2023-04-30T07:11:12.515Z,14.20
2023-04-30T07:13:39.323Z,14.40
2023-04-30T07:16:06.900Z,14.70
2023-04-30T07:18:33.820Z,15.20
2023-04-30T07:21:01.122Z,15.60
2023-04-30T07:23:30.471Z,15.60
2023-04-30T07:25:57.668Z,15.60
2023-04-30T07:28:24.519Z,15.90
2023-04-30T07:30:52.285Z,16.20
2023-04-30T07:33:19.164Z,16.60
2023-04-30T07:35:46.124Z,16.90
2023-04-30T07:38:12.937Z,16.90
2023-04-30T07:40:39.809Z,17.00
2023-04-30T07:43:06.874Z,16.90
2023-04-30T07:45:34.798Z,16.90
2023-04-30T07:48:01.871Z,16.70
2023-04-30T07:50:33.607Z,16.80
2023-04-30T07:53:01.967Z,16.60
2023-04-30T07:55:29.024Z,16.20
2023-04-30T07:57:55.851Z,15.80
2023-04-30T08:00:22.957Z,15.90
2023-04-30T08:02:50.545Z,15.90
2023-04-30T08:05:17.738Z,15.60
2023-04-30T08:07:44.727Z,15.80
2023-04-30T08:10:12.498Z,15.80
2023-04-30T08:12:39.504Z,15.90
2023-04-30T08:15:07.611Z,16.20
2023-04-30T08:17:35.248Z,16.00
2023-04-30T08:20:04.546Z,16.50
2023-04-30T08:22:31.444Z,16.70
2023-04-30T08:24:58.473Z,16.20
2023-04-30T08:27:25.507Z,15.80
2023-04-30T08:29:52.535Z,15.40
2023-04-30T08:32:19.963Z,15.70
2023-04-30T08:34:46.883Z,16.40
2023-04-30T08:37:13.723Z,16.90
2023-04-30T08:39:40.602Z,17.00
2023-04-30T08:42:09.603Z,17.30
2023-04-30T08:44:39.814Z,17.70
2023-04-30T08:47:08.211Z,17.50
2023-04-30T08:49:37.006Z,17.30
2023-04-30T08:52:03.919Z,17.70
2023-04-30T08:54:34.481Z,17.40
2023-04-30T08:57:02.654Z,17.70
2023-04-30T08:59:29.533Z,17.60
2023-04-30T09:01:56.530Z,17.40
2023-04-30T09:04:23.459Z,17.40
2023-04-30T09:06:58.931Z,17.90
2023-04-30T09:09:30.785Z,18.40
2023-04-30T09:12:15.709Z,18.50
2023-04-30T09:15:05.666Z,18.30
2023-04-30T09:17:34.252Z,18.10
2023-04-30T09:20:12.873Z,18.10
2023-04-30T09:22:42.284Z,18.40
2023-04-30T09:25:11.416Z,18.50
2023-04-30T09:27:38.267Z,18.60
2023-04-30T09:30:06.297Z,18.00
2023-04-30T09:32:33.155Z,17.60
2023-04-30T09:35:00.108Z,17.70
2023-04-30T09:37:45.289Z,18.00
2023-04-30T09:40:12.941Z,18.10
2023-04-30T09:42:40.088Z,18.30
2023-04-30T09:45:08.105Z,18.90
2023-04-30T09:47:35.861Z,18.60
2023-04-30T09:50:02.773Z,17.80
2023-04-30T09:52:29.609Z,17.50
2023-04-30T09:54:56.441Z,17.60
2023-04-30T09:57:24.548Z,17.70
2023-04-30T09:59:53.610Z,17.60
2023-04-30T10:02:23.899Z,17.70
2023-04-30T10:04:58.133Z,17.60
2023-04-30T10:07:29.331Z,17.80
2023-04-30T10:10:10.170Z,17.80
2023-04-30T10:12:54.608Z,17.60
2023-04-30T10:15:31.454Z,17.50
2023-04-30T10:18:04.295Z,17.30
2023-04-30T10:20:35.620Z,17.30
2023-04-30T10:23:02.720Z,17.20
2023-04-30T10:25:29.608Z,17.10
2023-04-30T10:27:57.153Z,17.00
2023-04-30T10:30:24.265Z,17.00
2023-04-30T10:33:04.241Z,17.10
2023-04-30T10:35:49.844Z,17.00
2023-04-30T10:38:26.636Z,17.30
2023-04-30T10:40:58.238Z,17.50
2023-04-30T10:43:25.975Z,17.50
2023-04-30T10:45:53.026Z,17.50
2023-04-30T10:48:27.006Z,17.70
2023-04-30T10:50:57.877Z,18.30
2023-04-30T10:53:29.779Z,18.90
2023-04-30T10:56:07.355Z,19.00
2023-04-30T10:58:39.803Z,19.40
2023-04-30T11:01:13.607Z,19.40
2023-04-30T11:04:06.501Z,19.40
2023-04-30T11:06:52.279Z,19.60
2023-04-30T11:09:19.893Z,19.20
2023-04-30T11:11:47.585Z,19.10
2023-04-30T11:14:20.897Z,18.80
2023-04-30T11:16:53.571Z,18.60
2023-04-30T11:19:24.979Z,18.30
2023-04-30T11:22:04.233Z,18.30
2023-04-30T11:24:59.139Z,18.30
2023-04-30T11:27:31.936Z,18.40
2023-04-30T11:29:59.572Z,18.20
2023-04-30T11:32:34.719Z,18.00
2023-04-30T11:35:04.263Z,17.90
2023-04-30T11:37:36.093Z,18.00
2023-04-30T11:40:09.942Z,17.80
2023-04-30T11:42:44.136Z,17.90
2023-04-30T11:45:17.846Z,18.10
2023-04-30T11:47:49.357Z,18.60
2023-04-30T11:50:19.983Z,18.80
2023-04-30T11:52:50.978Z,18.80
2023-04-30T11:55:26.414Z,18.90
2023-04-30T11:57:56.038Z,19.00
2023-04-30T12:00:30.147Z,18.90
2023-04-30T12:03:00.883Z,18.60
2023-04-30T12:05:28.303Z,18.70
2023-04-30T12:08:06.735Z,18.80
2023-04-30T12:10:34.095Z,19.30
2023-04-30T12:13:00.908Z,19.80
2023-04-30T12:15:28.984Z,20.10
2023-04-30T12:17:58.321Z,20.70
2023-04-30T12:20:28.329Z,21.50
2023-04-30T12:22:56.003Z,21.90
2023-04-30T12:25:23.582Z,22.00
2023-04-30T12:27:54.059Z,22.20
2023-04-30T12:30:23.989Z,21.80
2023-04-30T12:32:53.457Z,21.50
2023-04-30T12:35:23.166Z,21.40
2023-04-30T12:37:53.040Z,21.10
2023-04-30T12:40:21.739Z,21.20
2023-04-30T12:42:48.941Z,21.90
2023-04-30T12:45:54.219Z,21.50
2023-04-30T12:48:24.737Z,20.90
2023-04-30T12:50:56.837Z,21.30
2023-04-30T12:53:24.213Z,21.50
2023-04-30T12:56:19.657Z,22.10
2023-04-30T12:58:49.722Z,22.80
2023-04-30T13:01:25.386Z,22.70
2023-04-30T13:03:53.516Z,23.10
2023-04-30T13:06:23.174Z,23.60
2023-04-30T13:11:26.274Z,24.00
2023-04-30T13:13:55.343Z,24.30
2023-04-30T13:16:22.907Z,23.70
2023-04-30T13:19:58.639Z,23.80
2023-04-30T13:22:29.462Z,24.20
2023-04-30T13:24:56.317Z,24.40
2023-04-30T13:27:23.095Z,24.00
2023-04-30T13:29:49.915Z,23.80
2023-04-30T13:32:17.013Z,23.80
2023-04-30T13:34:43.951Z,23.90
2023-04-30T13:37:10.879Z,24.70
2023-04-30T13:39:37.695Z,24.20
2023-04-30T13:42:04.574Z,23.60
2023-04-30T13:44:33.763Z,23.80
2023-04-30T13:47:00.614Z,24.00
2023-04-30T13:49:27.443Z,24.30
2023-04-30T13:51:54.291Z,23.90
2023-04-30T13:54:21.114Z,22.90
2023-04-30T13:56:48.743Z,22.70
2023-04-30T13:59:16.117Z,22.50
2023-04-30T14:01:42.967Z,22.40
2023-04-30T14:04:09.903Z,22.70
2023-04-30T14:06:38.655Z,22.40
2023-04-30T14:09:05.622Z,22.10
2023-04-30T14:11:32.871Z,21.90
2023-04-30T14:13:59.708Z,21.80
2023-04-30T14:16:27.262Z,22.10
2023-04-30T14:18:54.232Z,22.80
2023-04-30T14:21:21.219Z,22.90
2023-04-30T14:23:48.145Z,23.50
2023-04-30T14:26:15.148Z,23.60
2023-04-30T14:28:42.002Z,23.10
2023-04-30T14:31:09.252Z,23.00
2023-04-30T14:33:36.245Z,23.30
2023-04-30T14:36:03.096Z,23.80
2023-04-30T14:38:29.899Z,24.40
2023-04-30T14:40:56.721Z,25.30
2023-04-30T14:43:23.671Z,26.50
2023-04-30T14:45:52.054Z,26.40
2023-04-30T14:48:18.916Z,26.30
2023-04-30T14:50:45.898Z,26.80
2023-04-30T14:53:13.235Z,27.00
2023-04-30T14:55:40.687Z,27.00
2023-04-30T14:58:07.510Z,26.50
2023-04-30T15:00:34.370Z,25.70
2023-04-30T15:03:01.279Z,25.10
2023-04-30T15:05:28.864Z,25.40
2023-04-30T15:07:55.781Z,25.60
2023-04-30T15:10:22.630Z,26.00
2023-04-30T15:12:49.432Z,25.90
2023-04-30T15:15:18.952Z,25.70
2023-04-30T15:17:45.991Z,24.90
2023-04-30T15:20:12.996Z,24.20
2023-04-30T15:22:40.930Z,24.40
2023-04-30T15:25:08.814Z,24.70
2023-04-30T15:27:36.798Z,25.20
2023-04-30T15:30:04.128Z,25.20
2023-04-30T15:32:31.312Z,24.50
2023-04-30T15:34:58.223Z,24.40
2023-04-30T15:37:25.472Z,23.90
2023-04-30T15:39:52.417Z,23.60
2023-04-30T15:42:19.236Z,23.50
2023-04-30T15:44:46.159Z,23.50
2023-04-30T15:47:12.998Z,23.60
2023-04-30T15:49:39.877Z,23.00
2023-04-30T15:52:06.897Z,23.00
2023-04-30T15:54:33.730Z,22.10
2023-04-30T15:57:00.535Z,22.10
2023-04-30T15:59:27.610Z,22.00
2023-04-30T16:01:54.706Z,21.40
2023-04-30T16:04:21.665Z,21.00
2023-04-30T16:06:49.151Z,20.90
2023-04-30T16:09:17.354Z,21.30
2023-04-30T16:11:44.146Z,21.10
2023-04-30T16:14:12.017Z,21.00
2023-04-30T16:16:38.923Z,20.90
2023-04-30T16:19:07.658Z,20.70
2023-04-30T16:21:37.770Z,20.60
2023-04-30T16:24:10.371Z,20.50
2023-04-30T16:26:37.335Z,20.70
2023-04-30T16:29:05.029Z,21.10
2023-04-30T16:31:32.388Z,21.70
2023-04-30T16:33:59.246Z,21.70
2023-04-30T16:36:26.337Z,21.10
2023-04-30T16:38:53.110Z,20.80
2023-04-30T16:41:21.358Z,20.40
2023-04-30T16:43:48.149Z,20.20
2023-04-30T16:46:15.029Z,20.00
2023-04-30T16:48:41.854Z,19.70
2023-04-30T16:51:09.527Z,19.20
2023-04-30T16:53:36.600Z,18.70
2023-04-30T16:56:03.623Z,18.30
2023-04-30T16:58:30.496Z,18.00
2023-04-30T17:00:57.442Z,17.70
2023-04-30T17:03:24.866Z,17.40
2023-04-30T17:05:53.104Z,17.10
2023-04-30T17:08:20.189Z,16.90
2023-04-30T17:10:47.629Z,16.80
2023-04-30T17:13:14.780Z,16.80
2023-04-30T17:15:41.835Z,16.70
2023-04-30T17:18:09.651Z,16.60
2023-04-30T17:20:36.559Z,16.60
2023-04-30T17:23:03.764Z,16.50
2023-04-30T17:25:31.836Z,16.60
2023-04-30T17:28:01.396Z,16.60
2023-04-30T17:30:29.170Z,16.50
2023-04-30T17:32:56.656Z,16.30
2023-04-30T17:35:23.623Z,16.20
2023-04-30T17:37:50.518Z,16.10
2023-04-30T17:40:17.570Z,16.00
2023-04-30T17:42:44.492Z,16.00
2023-04-30T17:45:11.715Z,15.90
2023-04-30T17:47:38.666Z,15.80
2023-04-30T17:50:08.422Z,15.50
2023-04-30T17:52:38.457Z,15.50
2023-04-30T17:55:09.538Z,15.40
2023-04-30T17:57:36.944Z,15.30
2023-04-30T18:00:05.299Z,15.20
2023-04-30T18:02:33.017Z,15.10
2023-04-30T18:04:59.884Z,15.10
2023-04-30T18:07:26.860Z,15.00
2023-04-30T18:09:54.391Z,15.00
2023-04-30T18:12:21.593Z,14.80
2023-04-30T18:14:48.463Z,14.80
2023-04-30T18:17:15.399Z,14.60
2023-04-30T18:19:48.510Z,14.50
2023-04-30T18:22:15.428Z,14.40
2023-04-30T18:24:42.507Z,14.20
2023-04-30T18:27:10.016Z,14.00
2023-04-30T18:29:37.074Z,14.00
2023-04-30T18:32:04.009Z,13.90
2023-04-30T18:34:31.152Z,13.90
2023-04-30T18:36:58.027Z,13.80
2023-04-30T18:39:24.895Z,13.70
2023-04-30T18:41:51.987Z,13.70
2023-04-30T18:44:19.869Z,13.60
2023-04-30T18:46:46.701Z,13.50
2023-04-30T18:49:13.927Z,13.40
2023-04-30T18:51:40.848Z,13.40
2023-04-30T18:54:07.714Z,13.30
2023-04-30T18:56:34.575Z,13.30
2023-04-30T18:59:01.461Z,13.20
2023-04-30T19:01:28.613Z,13.20
2023-04-30T19:03:55.785Z,13.20
2023-04-30T19:06:22.791Z,13.00
2023-04-30T19:08:49.648Z,13.00
2023-04-30T19:11:16.535Z,13.00
2023-04-30T19:13:43.336Z,12.90
2023-04-30T19:16:10.184Z,12.90
2023-04-30T19:18:38.616Z,12.80
2023-04-30T19:21:05.868Z,12.80
2023-04-30T19:23:32.772Z,12.80
2023-04-30T19:26:00.145Z,12.80
2023-04-30T19:28:27.485Z,12.70
2023-04-30T19:30:55.550Z,12.70
2023-04-30T19:33:25.832Z,12.70
2023-04-30T19:35:54.528Z,12.70
2023-04-30T19:38:21.769Z,12.70
2023-04-30T19:40:54.378Z,12.80
2023-04-30T19:43:22.982Z,12.70
2023-04-30T19:45:55.633Z,12.70
2023-04-30T19:48:24.132Z,12.70
2023-04-30T19:50:53.505Z,12.60
2023-04-30T19:53:25.599Z,12.60
2023-04-30T19:55:53.064Z,12.60
2023-04-30T19:58:20.224Z,12.50
2023-04-30T20:00:47.101Z,12.50
2023-04-30T20:03:16.487Z,12.50
2023-04-30T20:05:44.665Z,12.40
2023-04-30T20:08:11.635Z,12.50
2023-04-30T20:10:39.981Z,12.40
2023-04-30T20:13:07.362Z,12.40
2023-04-30T20:15:34.429Z,12.40
2023-04-30T20:18:01.643Z,12.50
2023-04-30T20:20:29.372Z,12.50
2023-04-30T20:22:56.518Z,12.40
2023-04-30T20:25:28.248Z,12.50
2023-04-30T20:27:56.028Z,12.50
2023-04-30T20:30:22.818Z,12.30
2023-04-30T20:32:49.909Z,12.20
2023-04-30T20:35:17.542Z,12.20
2023-04-30T20:37:44.365Z,12.20
2023-04-30T20:40:11.871Z,12.10
2023-04-30T20:42:40.660Z,12.00
2023-04-30T20:45:08.935Z,12.00
2023-04-30T20:47:35.844Z,11.90
2023-04-30T20:50:03.106Z,11.90
2023-04-30T20:52:30.088Z,11.80
2023-04-30T20:54:59.228Z,11.80
2023-04-30T20:57:26.858Z,11.80
2023-04-30T20:59:53.868Z,11.70
2023-04-30T21:02:21.008Z,11.70
2023-04-30T21:04:47.961Z,11.60
2023-04-30T21:07:14.739Z,11.60
2023-04-30T21:09:41.669Z,11.50
2023-04-30T21:12:09.312Z,11.40
2023-04-30T21:14:36.284Z,11.40
2023-04-30T21:17:03.320Z,11.50
2023-04-30T21:19:31.522Z,11.20
2023-04-30T21:21:58.541Z,11.30
2023-04-30T21:24:25.534Z,11.20
2023-04-30T21:26:54.250Z,11.20
2023-04-30T21:29:21.588Z,11.10
2023-04-30T21:31:48.493Z,11.10
2023-04-30T21:34:15.348Z,11.10
2023-04-30T21:36:42.146Z,11.10
2023-04-30T21:39:09.023Z,11.10
2023-04-30T21:41:35.869Z,11.00
2023-04-30T21:44:03.467Z,11.00
2023-04-30T21:46:30.387Z,11.00
2023-04-30T21:48:57.195Z,11.10
2023-04-30T21:51:24.017Z,11.10
2023-04-30T21:53:50.847Z,10.90
2023-04-30T21:56:19.186Z,10.90
2023-04-30T21:58:48.012Z,10.90
2023-04-30T22:01:14.887Z,10.90
2023-04-30T22:03:42.433Z,10.80
2023-04-30T22:06:09.333Z,10.80
2023-04-30T22:08:36.262Z,10.80
2023-04-30T22:11:04.616Z,10.80
2023-04-30T22:13:31.583Z,10.70
2023-04-30T22:15:58.480Z,10.70
2023-04-30T22:18:25.890Z,10.70
2023-04-30T22:20:53.093Z,10.70
2023-04-30T22:23:23.332Z,10.70
2023-04-30T22:25:50.722Z,10.70
2023-04-30T22:28:19.124Z,10.70
2023-04-30T22:30:46.163Z,10.70
2023-04-30T22:33:13.234Z,10.60
2023-04-30T22:35:40.303Z,10.60
2023-04-30T22:38:07.910Z,10.70
2023-04-30T22:40:39.285Z,10.60
2023-04-30T22:43:06.329Z,10.50
2023-04-30T22:45:36.964Z,10.60
2023-04-30T22:48:04.324Z,10.60
2023-04-30T22:50:31.937Z,10.50
2023-04-30T22:52:59.825Z,10.50
2023-04-30T22:55:27.231Z,10.50
2023-04-30T22:57:54.125Z,10.50
2023-04-30T23:00:21.185Z,10.50
2023-04-30T23:02:48.120Z,10.50
2023-04-30T23:05:15.140Z,10.50
2023-04-30T23:07:42.078Z,10.50
2023-04-30T23:10:09.686Z,10.50
2023-04-30T23:12:36.487Z,10.50
2023-04-30T23:15:03.950Z,10.40
2023-04-30T23:17:30.808Z,10.50
2023-04-30T23:19:58.158Z,10.50
2023-04-30T23:22:25.364Z,10.40
2023-04-30T23:24:52.336Z,10.40
2023-04-30T23:27:19.203Z,10.40
2023-04-30T23:29:46.035Z,10.30
2023-04-30T23:32:12.954Z,10.40
2023-04-30T23:34:39.918Z,10.40
2023-04-30T23:37:06.794Z,10.30
2023-04-30T23:39:33.596Z,10.30
2023-04-30T23:42:00.526Z,10.30
2023-04-30T23:44:27.549Z,10.20
2023-04-30T23:46:55.963Z,10.20
2023-04-30T23:49:24.662Z,10.20
2023-04-30T23:51:51.694Z,10.20
2023-04-30T23:54:18.857Z,10.20
2023-04-30T23:56:46.262Z,10.20
2023-04-30T23:59:13.079Z,10.10
